sensor_id;sensor_type;location;lat;lon;timestamp;P1;durP1;ratioP1;P2;durP2;ratioP2
75486;SDS011;65009;44.762;21.516;2023-02-10T00:01:46;47.97;;;24.37;;
75486;SDS011;65009;44.762;21.516;2023-02-10T00:04:13;43.97;;;22.40;;
75486;SDS011;65009;44.762;21.516;2023-02-10T00:06:39;55.30;;;26.70;;
75486;SDS011;65009;44.762;21.516;2023-02-10T00:09:09;62.23;;;26.77;;
75486;SDS011;65009;44.762;21.516;2023-02-10T00:11:36;65.13;;;28.33;;
75486;SDS011;65009;44.762;21.516;2023-02-10T00:14:21;63.73;;;27.47;;
75486;SDS011;65009;44.762;21.516;2023-02-10T00:16:50;63.20;;;29.30;;
75486;SDS011;65009;44.762;21.516;2023-02-10T00:19:17;279.70;;;117.03;;
75486;SDS011;65009;44.762;21.516;2023-02-10T00:21:43;199.03;;;84.20;;
75486;SDS011;65009;44.762;21.516;2023-02-10T00:24:09;58.97;;;26.53;;
75486;SDS011;65009;44.762;21.516;2023-02-10T00:26:35;64.03;;;29.47;;
75486;SDS011;65009;44.762;21.516;2023-02-10T00:29:02;59.60;;;26.33;;
75486;SDS011;65009;44.762;21.516;2023-02-10T00:31:28;64.87;;;29.03;;
75486;SDS011;65009;44.762;21.516;2023-02-10T00:33:54;49.20;;;23.97;;
75486;SDS011;65009;44.762;21.516;2023-02-10T00:36:20;61.70;;;31.33;;
75486;SDS011;65009;44.762;21.516;2023-02-10T00:38:47;67.73;;;33.23;;
75486;SDS011;65009;44.762;21.516;2023-02-10T00:41:14;75.30;;;30.23;;
75486;SDS011;65009;44.762;21.516;2023-02-10T00:43:41;65.10;;;28.07;;
75486;SDS011;65009;44.762;21.516;2023-02-10T00:46:10;66.70;;;29.47;;
75486;SDS011;65009;44.762;21.516;2023-02-10T00:48:36;76.17;;;30.73;;
75486;SDS011;65009;44.762;21.516;2023-02-10T00:51:03;75.57;;;28.93;;
75486;SDS011;65009;44.762;21.516;2023-02-10T00:53:29;60.27;;;26.60;;
75486;SDS011;65009;44.762;21.516;2023-02-10T00:55:55;68.00;;;27.37;;
75486;SDS011;65009;44.762;21.516;2023-02-10T00:58:22;65.07;;;28.30;;
75486;SDS011;65009;44.762;21.516;2023-02-10T01:00:48;71.13;;;29.37;;
75486;SDS011;65009;44.762;21.516;2023-02-10T01:03:14;69.27;;;30.00;;
75486;SDS011;65009;44.762;21.516;2023-02-10T01:05:40;68.57;;;29.93;;
75486;SDS011;65009;44.762;21.516;2023-02-10T01:08:06;72.93;;;29.70;;
75486;SDS011;65009;44.762;21.516;2023-02-10T01:10:33;61.57;;;26.30;;
75486;SDS011;65009;44.762;21.516;2023-02-10T01:13:02;64.67;;;26.17;;
75486;SDS011;65009;44.762;21.516;2023-02-10T01:15:29;56.07;;;23.63;;
75486;SDS011;65009;44.762;21.516;2023-02-10T01:17:55;56.23;;;23.90;;
75486;SDS011;65009;44.762;21.516;2023-02-10T01:20:21;56.00;;;26.23;;
75486;SDS011;65009;44.762;21.516;2023-02-10T01:22:48;57.37;;;26.77;;
75486;SDS011;65009;44.762;21.516;2023-02-10T01:25:14;57.07;;;27.57;;
75486;SDS011;65009;44.762;21.516;2023-02-10T01:27:40;51.17;;;23.90;;
75486;SDS011;65009;44.762;21.516;2023-02-10T01:30:06;50.03;;;24.00;;
75486;SDS011;65009;44.762;21.516;2023-02-10T01:32:33;52.67;;;24.67;;
75486;SDS011;65009;44.762;21.516;2023-02-10T01:34:59;46.03;;;22.50;;
75486;SDS011;65009;44.762;21.516;2023-02-10T01:37:25;43.90;;;21.47;;
75486;SDS011;65009;44.762;21.516;2023-02-10T01:39:51;45.53;;;22.00;;
75486;SDS011;65009;44.762;21.516;2023-02-10T01:42:17;53.67;;;23.93;;
75486;SDS011;65009;44.762;21.516;2023-02-10T01:47:09;46.33;;;21.50;;
75486;SDS011;65009;44.762;21.516;2023-02-10T01:49:43;44.33;;;21.17;;
75486;SDS011;65009;44.762;21.516;2023-02-10T01:52:11;47.67;;;23.80;;
75486;SDS011;65009;44.762;21.516;2023-02-10T01:54:40;46.10;;;22.27;;
75486;SDS011;65009;44.762;21.516;2023-02-10T01:57:07;38.83;;;20.10;;
75486;SDS011;65009;44.762;21.516;2023-02-10T01:59:34;48.07;;;21.93;;
75486;SDS011;65009;44.762;21.516;2023-02-10T02:02:00;49.50;;;21.63;;
75486;SDS011;65009;44.762;21.516;2023-02-10T02:04:42;48.30;;;21.23;;
75486;SDS011;65009;44.762;21.516;2023-02-10T02:07:12;41.43;;;20.67;;
75486;SDS011;65009;44.762;21.516;2023-02-10T02:09:38;39.87;;;20.77;;
75486;SDS011;65009;44.762;21.516;2023-02-10T02:12:15;38.23;;;19.83;;
75486;SDS011;65009;44.762;21.516;2023-02-10T02:14:53;37.30;;;19.10;;
75486;SDS011;65009;44.762;21.516;2023-02-10T02:17:33;39.77;;;18.63;;
75486;SDS011;65009;44.762;21.516;2023-02-10T02:33:04;54.83;;;25.87;;
75486;SDS011;65009;44.762;21.516;2023-02-10T02:35:39;46.27;;;24.00;;
75486;SDS011;65009;44.762;21.516;2023-02-10T02:38:07;59.40;;;28.47;;
75486;SDS011;65009;44.762;21.516;2023-02-10T02:40:33;67.23;;;33.20;;
75486;SDS011;65009;44.762;21.516;2023-02-10T02:42:59;75.30;;;32.10;;
75486;SDS011;65009;44.762;21.516;2023-02-10T02:50:47;54.97;;;27.23;;
75486;SDS011;65009;44.762;21.516;2023-02-10T02:53:33;59.33;;;28.37;;
75486;SDS011;65009;44.762;21.516;2023-02-10T02:56:18;67.07;;;28.50;;
75486;SDS011;65009;44.762;21.516;2023-02-10T03:01:14;67.67;;;30.57;;
75486;SDS011;65009;44.762;21.516;2023-02-10T03:03:41;70.13;;;32.90;;
75486;SDS011;65009;44.762;21.516;2023-02-10T03:06:07;66.43;;;31.47;;
75486;SDS011;65009;44.762;21.516;2023-02-10T03:08:34;70.90;;;32.93;;
75486;SDS011;65009;44.762;21.516;2023-02-10T03:11:01;71.20;;;34.23;;
75486;SDS011;65009;44.762;21.516;2023-02-10T03:13:27;66.93;;;29.83;;
75486;SDS011;65009;44.762;21.516;2023-02-10T03:15:54;72.70;;;33.07;;
75486;SDS011;65009;44.762;21.516;2023-02-10T03:18:20;61.90;;;27.93;;
75486;SDS011;65009;44.762;21.516;2023-02-10T03:20:46;52.67;;;25.47;;
75486;SDS011;65009;44.762;21.516;2023-02-10T03:23:12;55.90;;;26.33;;
75486;SDS011;65009;44.762;21.516;2023-02-10T03:25:38;53.93;;;25.20;;
75486;SDS011;65009;44.762;21.516;2023-02-10T03:28:05;57.27;;;28.43;;
75486;SDS011;65009;44.762;21.516;2023-02-10T03:30:31;62.70;;;29.33;;
75486;SDS011;65009;44.762;21.516;2023-02-10T03:32:57;63.23;;;30.17;;
75486;SDS011;65009;44.762;21.516;2023-02-10T03:35:23;70.63;;;35.10;;
75486;SDS011;65009;44.762;21.516;2023-02-10T03:37:50;78.40;;;37.90;;
75486;SDS011;65009;44.762;21.516;2023-02-10T03:40:16;81.10;;;38.77;;
75486;SDS011;65009;44.762;21.516;2023-02-10T03:42:42;79.57;;;36.50;;
75486;SDS011;65009;44.762;21.516;2023-02-10T03:45:08;71.80;;;35.00;;
75486;SDS011;65009;44.762;21.516;2023-02-10T03:47:34;51.90;;;24.97;;
75486;SDS011;65009;44.762;21.516;2023-02-10T03:50:00;59.33;;;28.57;;
75486;SDS011;65009;44.762;21.516;2023-02-10T03:52:26;66.20;;;31.87;;
75486;SDS011;65009;44.762;21.516;2023-02-10T03:54:53;69.80;;;35.57;;
75486;SDS011;65009;44.762;21.516;2023-02-10T03:57:19;76.57;;;36.03;;
75486;SDS011;65009;44.762;21.516;2023-02-10T03:59:45;91.33;;;38.90;;
75486;SDS011;65009;44.762;21.516;2023-02-10T04:02:11;101.20;;;44.70;;
75486;SDS011;65009;44.762;21.516;2023-02-10T04:04:37;112.33;;;50.70;;
75486;SDS011;65009;44.762;21.516;2023-02-10T04:07:03;107.53;;;50.00;;
75486;SDS011;65009;44.762;21.516;2023-02-10T04:09:30;77.10;;;38.53;;
75486;SDS011;65009;44.762;21.516;2023-02-10T04:11:56;68.00;;;34.17;;
75486;SDS011;65009;44.762;21.516;2023-02-10T04:14:22;65.40;;;31.00;;
75486;SDS011;65009;44.762;21.516;2023-02-10T04:16:48;88.70;;;41.83;;
75486;SDS011;65009;44.762;21.516;2023-02-10T04:19:14;98.40;;;44.80;;
75486;SDS011;65009;44.762;21.516;2023-02-10T04:21:41;81.10;;;37.00;;
75486;SDS011;65009;44.762;21.516;2023-02-10T04:24:07;77.37;;;38.13;;
75486;SDS011;65009;44.762;21.516;2023-02-10T04:26:33;82.53;;;37.17;;
75486;SDS011;65009;44.762;21.516;2023-02-10T04:28:59;128.87;;;84.60;;
75486;SDS011;65009;44.762;21.516;2023-02-10T04:31:25;137.40;;;72.47;;
75486;SDS011;65009;44.762;21.516;2023-02-10T04:33:51;119.87;;;60.90;;
75486;SDS011;65009;44.762;21.516;2023-02-10T04:36:18;98.43;;;50.53;;
75486;SDS011;65009;44.762;21.516;2023-02-10T04:38:44;137.00;;;61.17;;
75486;SDS011;65009;44.762;21.516;2023-02-10T04:41:10;303.70;;;121.83;;
75486;SDS011;65009;44.762;21.516;2023-02-10T04:43:36;418.50;;;202.80;;
75486;SDS011;65009;44.762;21.516;2023-02-10T04:46:02;135.37;;;68.67;;
75486;SDS011;65009;44.762;21.516;2023-02-10T04:48:29;85.03;;;41.83;;
75486;SDS011;65009;44.762;21.516;2023-02-10T04:50:55;150.47;;;67.40;;
75486;SDS011;65009;44.762;21.516;2023-02-10T04:53:21;96.10;;;45.07;;
75486;SDS011;65009;44.762;21.516;2023-02-10T04:55:48;91.70;;;43.73;;
75486;SDS011;65009;44.762;21.516;2023-02-10T04:58:14;116.30;;;54.20;;
75486;SDS011;65009;44.762;21.516;2023-02-10T05:00:40;146.13;;;69.50;;
75486;SDS011;65009;44.762;21.516;2023-02-10T05:03:06;136.20;;;66.53;;
75486;SDS011;65009;44.762;21.516;2023-02-10T05:05:33;148.53;;;70.73;;
75486;SDS011;65009;44.762;21.516;2023-02-10T05:07:59;154.57;;;68.43;;
75486;SDS011;65009;44.762;21.516;2023-02-10T05:10:25;188.57;;;85.40;;
75486;SDS011;65009;44.762;21.516;2023-02-10T05:12:51;197.47;;;83.37;;
75486;SDS011;65009;44.762;21.516;2023-02-10T05:15:17;236.47;;;107.90;;
75486;SDS011;65009;44.762;21.516;2023-02-10T05:17:43;263.03;;;118.43;;
75486;SDS011;65009;44.762;21.516;2023-02-10T05:20:10;257.33;;;117.67;;
75486;SDS011;65009;44.762;21.516;2023-02-10T05:22:36;254.77;;;118.20;;
75486;SDS011;65009;44.762;21.516;2023-02-10T05:25:02;231.67;;;109.40;;
75486;SDS011;65009;44.762;21.516;2023-02-10T05:27:29;278.70;;;115.73;;
75486;SDS011;65009;44.762;21.516;2023-02-10T05:29:55;456.53;;;167.90;;
75486;SDS011;65009;44.762;21.516;2023-02-10T05:32:21;299.93;;;117.43;;
75486;SDS011;65009;44.762;21.516;2023-02-10T05:34:47;361.13;;;133.67;;
75486;SDS011;65009;44.762;21.516;2023-02-10T05:37:13;312.97;;;129.50;;
75486;SDS011;65009;44.762;21.516;2023-02-10T05:39:40;296.97;;;121.80;;
75486;SDS011;65009;44.762;21.516;2023-02-10T05:42:06;248.20;;;102.00;;
75486;SDS011;65009;44.762;21.516;2023-02-10T05:44:32;225.80;;;96.10;;
75486;SDS011;65009;44.762;21.516;2023-02-10T05:46:58;236.70;;;108.13;;
75486;SDS011;65009;44.762;21.516;2023-02-10T05:49:24;256.30;;;123.17;;
75486;SDS011;65009;44.762;21.516;2023-02-10T05:51:50;240.40;;;117.63;;
75486;SDS011;65009;44.762;21.516;2023-02-10T05:54:17;194.97;;;85.57;;
75486;SDS011;65009;44.762;21.516;2023-02-10T05:56:43;184.37;;;84.13;;
75486;SDS011;65009;44.762;21.516;2023-02-10T05:59:10;128.23;;;57.73;;
75486;SDS011;65009;44.762;21.516;2023-02-10T06:01:39;152.33;;;68.00;;
75486;SDS011;65009;44.762;21.516;2023-02-10T06:04:06;204.47;;;93.00;;
75486;SDS011;65009;44.762;21.516;2023-02-10T06:06:32;139.10;;;67.43;;
75486;SDS011;65009;44.762;21.516;2023-02-10T06:08:58;148.63;;;60.17;;
75486;SDS011;65009;44.762;21.516;2023-02-10T06:11:24;109.53;;;43.00;;
75486;SDS011;65009;44.762;21.516;2023-02-10T06:13:50;175.37;;;77.53;;
75486;SDS011;65009;44.762;21.516;2023-02-10T06:16:16;168.13;;;75.00;;
75486;SDS011;65009;44.762;21.516;2023-02-10T06:18:42;195.37;;;89.47;;
75486;SDS011;65009;44.762;21.516;2023-02-10T06:21:12;134.20;;;62.37;;
75486;SDS011;65009;44.762;21.516;2023-02-10T06:23:38;433.80;;;170.30;;
75486;SDS011;65009;44.762;21.516;2023-02-10T06:26:04;342.60;;;137.73;;
75486;SDS011;65009;44.762;21.516;2023-02-10T06:28:30;240.13;;;104.33;;
75486;SDS011;65009;44.762;21.516;2023-02-10T06:30:57;321.13;;;140.27;;
75486;SDS011;65009;44.762;21.516;2023-02-10T06:33:23;315.90;;;144.77;;
75486;SDS011;65009;44.762;21.516;2023-02-10T06:35:50;349.50;;;148.93;;
75486;SDS011;65009;44.762;21.516;2023-02-10T06:38:16;262.80;;;115.47;;
75486;SDS011;65009;44.762;21.516;2023-02-10T06:40:42;241.13;;;113.33;;
75486;SDS011;65009;44.762;21.516;2023-02-10T06:43:08;219.47;;;106.53;;
75486;SDS011;65009;44.762;21.516;2023-02-10T06:45:35;185.40;;;88.50;;
75486;SDS011;65009;44.762;21.516;2023-02-10T06:48:01;174.63;;;85.03;;
75486;SDS011;65009;44.762;21.516;2023-02-10T06:50:28;166.90;;;77.17;;
75486;SDS011;65009;44.762;21.516;2023-02-10T06:52:54;84.03;;;43.87;;
75486;SDS011;65009;44.762;21.516;2023-02-10T06:55:20;85.30;;;43.07;;
75486;SDS011;65009;44.762;21.516;2023-02-10T06:57:46;188.10;;;119.03;;
75486;SDS011;65009;44.762;21.516;2023-02-10T07:00:13;246.93;;;134.27;;
75486;SDS011;65009;44.762;21.516;2023-02-10T07:02:39;171.80;;;90.27;;
75486;SDS011;65009;44.762;21.516;2023-02-10T07:05:06;154.97;;;63.40;;
75486;SDS011;65009;44.762;21.516;2023-02-10T07:07:36;95.87;;;48.03;;
75486;SDS011;65009;44.762;21.516;2023-02-10T07:10:03;134.13;;;63.13;;
75486;SDS011;65009;44.762;21.516;2023-02-10T07:12:29;107.40;;;49.40;;
75486;SDS011;65009;44.762;21.516;2023-02-10T07:14:56;75.23;;;37.67;;
75486;SDS011;65009;44.762;21.516;2023-02-10T07:17:22;67.33;;;31.17;;
75486;SDS011;65009;44.762;21.516;2023-02-10T07:19:48;55.93;;;27.07;;
75486;SDS011;65009;44.762;21.516;2023-02-10T07:22:14;39.37;;;20.83;;
75486;SDS011;65009;44.762;21.516;2023-02-10T07:24:40;49.87;;;26.57;;
75486;SDS011;65009;44.762;21.516;2023-02-10T07:27:07;89.70;;;41.57;;
75486;SDS011;65009;44.762;21.516;2023-02-10T07:29:33;70.57;;;35.20;;
75486;SDS011;65009;44.762;21.516;2023-02-10T07:31:59;64.50;;;34.00;;
75486;SDS011;65009;44.762;21.516;2023-02-10T07:34:26;61.77;;;30.33;;
75486;SDS011;65009;44.762;21.516;2023-02-10T07:36:52;97.37;;;41.13;;
75486;SDS011;65009;44.762;21.516;2023-02-10T07:39:21;38.10;;;21.50;;
75486;SDS011;65009;44.762;21.516;2023-02-10T07:41:48;78.50;;;39.30;;
75486;SDS011;65009;44.762;21.516;2023-02-10T07:44:14;50.53;;;27.33;;
75486;SDS011;65009;44.762;21.516;2023-02-10T07:46:40;50.27;;;28.70;;
75486;SDS011;65009;44.762;21.516;2023-02-10T07:49:06;38.20;;;22.40;;
75486;SDS011;65009;44.762;21.516;2023-02-10T07:51:33;42.33;;;24.80;;
75486;SDS011;65009;44.762;21.516;2023-02-10T07:53:59;31.50;;;18.57;;
75486;SDS011;65009;44.762;21.516;2023-02-10T07:56:25;30.20;;;17.80;;
75486;SDS011;65009;44.762;21.516;2023-02-10T07:58:51;39.83;;;21.20;;
75486;SDS011;65009;44.762;21.516;2023-02-10T08:01:17;36.57;;;20.53;;
75486;SDS011;65009;44.762;21.516;2023-02-10T08:03:43;33.20;;;18.83;;
75486;SDS011;65009;44.762;21.516;2023-02-10T08:06:10;40.40;;;22.83;;
75486;SDS011;65009;44.762;21.516;2023-02-10T08:08:36;44.77;;;24.60;;
75486;SDS011;65009;44.762;21.516;2023-02-10T08:11:03;45.43;;;26.00;;
75486;SDS011;65009;44.762;21.516;2023-02-10T08:13:29;40.00;;;22.77;;
75486;SDS011;65009;44.762;21.516;2023-02-10T08:15:55;48.40;;;26.60;;
75486;SDS011;65009;44.762;21.516;2023-02-10T08:18:22;40.23;;;22.80;;
75486;SDS011;65009;44.762;21.516;2023-02-10T08:20:48;33.23;;;19.83;;
75486;SDS011;65009;44.762;21.516;2023-02-10T08:23:15;34.87;;;18.97;;
75486;SDS011;65009;44.762;21.516;2023-02-10T08:25:41;37.33;;;20.87;;
75486;SDS011;65009;44.762;21.516;2023-02-10T08:28:07;43.30;;;26.80;;
75486;SDS011;65009;44.762;21.516;2023-02-10T08:30:34;41.17;;;24.00;;
75486;SDS011;65009;44.762;21.516;2023-02-10T08:33:00;44.43;;;25.50;;
75486;SDS011;65009;44.762;21.516;2023-02-10T08:35:26;43.83;;;25.57;;
75486;SDS011;65009;44.762;21.516;2023-02-10T08:37:52;38.60;;;20.73;;
75486;SDS011;65009;44.762;21.516;2023-02-10T08:40:19;35.80;;;22.10;;
75486;SDS011;65009;44.762;21.516;2023-02-10T08:42:45;92.37;;;43.57;;
75486;SDS011;65009;44.762;21.516;2023-02-10T08:45:11;44.90;;;25.40;;
75486;SDS011;65009;44.762;21.516;2023-02-10T08:47:37;45.53;;;25.53;;
75486;SDS011;65009;44.762;21.516;2023-02-10T08:50:03;47.37;;;26.40;;
75486;SDS011;65009;44.762;21.516;2023-02-10T08:52:30;156.97;;;69.63;;
75486;SDS011;65009;44.762;21.516;2023-02-10T08:54:56;49.80;;;28.10;;
75486;SDS011;65009;44.762;21.516;2023-02-10T08:57:24;42.30;;;24.43;;
75486;SDS011;65009;44.762;21.516;2023-02-10T08:59:50;41.73;;;24.77;;
75486;SDS011;65009;44.762;21.516;2023-02-10T09:02:16;44.80;;;26.27;;
75486;SDS011;65009;44.762;21.516;2023-02-10T09:04:43;43.50;;;27.70;;
75486;SDS011;65009;44.762;21.516;2023-02-10T09:07:09;41.47;;;25.60;;
75486;SDS011;65009;44.762;21.516;2023-02-10T09:09:39;40.40;;;26.20;;
75486;SDS011;65009;44.762;21.516;2023-02-10T09:12:07;39.87;;;25.80;;
75486;SDS011;65009;44.762;21.516;2023-02-10T09:14:35;39.03;;;25.83;;
75486;SDS011;65009;44.762;21.516;2023-02-10T09:17:01;37.27;;;25.40;;
75486;SDS011;65009;44.762;21.516;2023-02-10T09:19:28;37.67;;;25.03;;
75486;SDS011;65009;44.762;21.516;2023-02-10T09:21:54;31.57;;;21.50;;
75486;SDS011;65009;44.762;21.516;2023-02-10T09:24:21;27.47;;;18.57;;
75486;SDS011;65009;44.762;21.516;2023-02-10T09:26:48;33.93;;;19.90;;
75486;SDS011;65009;44.762;21.516;2023-02-10T09:29:14;34.27;;;21.40;;
75486;SDS011;65009;44.762;21.516;2023-02-10T09:31:41;36.90;;;21.03;;
75486;SDS011;65009;44.762;21.516;2023-02-10T09:34:07;30.57;;;19.53;;
75486;SDS011;65009;44.762;21.516;2023-02-10T09:36:34;27.27;;;17.13;;
75486;SDS011;65009;44.762;21.516;2023-02-10T09:39:00;48.67;;;28.60;;
75486;SDS011;65009;44.762;21.516;2023-02-10T09:46:47;29.77;;;21.13;;
75486;SDS011;65009;44.762;21.516;2023-02-10T09:49:19;26.53;;;17.67;;
75486;SDS011;65009;44.762;21.516;2023-02-10T09:54:23;24.30;;;17.73;;
75486;SDS011;65009;44.762;21.516;2023-02-10T09:56:54;32.72;;;21.50;;
75486;SDS011;65009;44.762;21.516;2023-02-10T09:59:20;44.10;;;31.23;;
75486;SDS011;65009;44.762;21.516;2023-02-10T10:01:58;37.05;;;26.70;;
75486;SDS011;65009;44.762;21.516;2023-02-10T10:04:26;32.88;;;24.85;;
75486;SDS011;65009;44.762;21.516;2023-02-10T10:12:04;22.58;;;16.42;;
75486;SDS011;65009;44.762;21.516;2023-02-10T10:14:35;23.85;;;17.20;;
75486;SDS011;65009;44.762;21.516;2023-02-10T10:27:08;20.42;;;14.63;;
75486;SDS011;65009;44.762;21.516;2023-02-10T10:29:48;20.13;;;14.02;;
75486;SDS011;65009;44.762;21.516;2023-02-10T10:32:20;18.40;;;14.15;;
75486;SDS011;65009;44.762;21.516;2023-02-10T10:34:50;15.45;;;11.75;;
75486;SDS011;65009;44.762;21.516;2023-02-10T10:37:21;14.82;;;12.18;;
75486;SDS011;65009;44.762;21.516;2023-02-10T10:39:55;15.88;;;14.18;;
75486;SDS011;65009;44.762;21.516;2023-02-10T10:42:45;13.02;;;11.60;;
75486;SDS011;65009;44.762;21.516;2023-02-10T10:45:22;14.43;;;11.15;;
75486;SDS011;65009;44.762;21.516;2023-02-10T10:50:20;17.77;;;13.85;;
75486;SDS011;65009;44.762;21.516;2023-02-10T10:52:49;18.20;;;12.90;;
75486;SDS011;65009;44.762;21.516;2023-02-10T10:57:52;18.65;;;14.88;;
75486;SDS011;65009;44.762;21.516;2023-02-10T11:00:20;34.92;;;26.98;;
75486;SDS011;65009;44.762;21.516;2023-02-10T11:02:51;21.65;;;16.88;;
75486;SDS011;65009;44.762;21.516;2023-02-10T11:05:17;19.02;;;15.05;;
75486;SDS011;65009;44.762;21.516;2023-02-10T11:07:47;17.85;;;15.75;;
75486;SDS011;65009;44.762;21.516;2023-02-10T11:10:21;19.23;;;15.80;;
75486;SDS011;65009;44.762;21.516;2023-02-10T11:12:48;19.13;;;15.27;;
75486;SDS011;65009;44.762;21.516;2023-02-10T11:17:49;18.92;;;16.08;;
75486;SDS011;65009;44.762;21.516;2023-02-10T11:22:42;20.63;;;14.60;;
75486;SDS011;65009;44.762;21.516;2023-02-10T11:27:50;17.33;;;13.68;;
75486;SDS011;65009;44.762;21.516;2023-02-10T11:30:26;21.48;;;17.17;;
75486;SDS011;65009;44.762;21.516;2023-02-10T11:32:53;18.75;;;15.73;;
75486;SDS011;65009;44.762;21.516;2023-02-10T11:35:20;16.88;;;13.55;;
75486;SDS011;65009;44.762;21.516;2023-02-10T11:37:51;37.70;;;29.83;;
75486;SDS011;65009;44.762;21.516;2023-02-10T11:40:19;53.65;;;47.10;;
75486;SDS011;65009;44.762;21.516;2023-02-10T11:42:50;30.55;;;26.65;;
75486;SDS011;65009;44.762;21.516;2023-02-10T11:45:21;27.08;;;20.80;;
75486;SDS011;65009;44.762;21.516;2023-02-10T11:51:06;18.35;;;15.80;;
75486;SDS011;65009;44.762;21.516;2023-02-10T11:53:33;57.97;;;37.97;;
75486;SDS011;65009;44.762;21.516;2023-02-10T11:56:05;15.40;;;13.75;;
75486;SDS011;65009;44.762;21.516;2023-02-10T12:01:30;13.70;;;12.27;;
75486;SDS011;65009;44.762;21.516;2023-02-10T12:04:02;17.90;;;14.98;;
75486;SDS011;65009;44.762;21.516;2023-02-10T12:06:36;26.83;;;21.20;;
75486;SDS011;65009;44.762;21.516;2023-02-10T12:09:12;21.27;;;17.75;;
75486;SDS011;65009;44.762;21.516;2023-02-10T12:14:19;21.67;;;19.00;;
75486;SDS011;65009;44.762;21.516;2023-02-10T12:22:00;35.17;;;27.65;;
75486;SDS011;65009;44.762;21.516;2023-02-10T12:35:13;23.10;;;19.20;;
75486;SDS011;65009;44.762;21.516;2023-02-10T12:51:11;29.73;;;23.58;;
75486;SDS011;65009;44.762;21.516;2023-02-10T12:58:14;22.27;;;19.00;;
75486;SDS011;65009;44.762;21.516;2023-02-10T13:00:44;25.65;;;21.83;;
75486;SDS011;65009;44.762;21.516;2023-02-10T13:03:14;21.52;;;17.90;;
75486;SDS011;65009;44.762;21.516;2023-02-10T13:08:27;15.15;;;13.60;;
75486;SDS011;65009;44.762;21.516;2023-02-10T13:10:58;15.45;;;13.40;;
75486;SDS011;65009;44.762;21.516;2023-02-10T13:13:26;19.65;;;15.70;;
75486;SDS011;65009;44.762;21.516;2023-02-10T13:15:56;15.55;;;13.88;;
75486;SDS011;65009;44.762;21.516;2023-02-10T13:18:28;18.23;;;14.10;;
75486;SDS011;65009;44.762;21.516;2023-02-10T13:26:00;20.48;;;17.50;;
75486;SDS011;65009;44.762;21.516;2023-02-10T13:31:10;22.35;;;16.65;;
75486;SDS011;65009;44.762;21.516;2023-02-10T13:36:06;17.73;;;14.90;;
75486;SDS011;65009;44.762;21.516;2023-02-10T13:38:35;16.33;;;14.65;;
75486;SDS011;65009;44.762;21.516;2023-02-10T13:41:01;18.40;;;14.35;;
75486;SDS011;65009;44.762;21.516;2023-02-10T13:43:46;16.92;;;14.55;;
75486;SDS011;65009;44.762;21.516;2023-02-10T13:46:20;15.68;;;13.55;;
75486;SDS011;65009;44.762;21.516;2023-02-10T13:48:51;26.02;;;14.20;;
75486;SDS011;65009;44.762;21.516;2023-02-10T13:51:26;18.65;;;15.60;;
75486;SDS011;65009;44.762;21.516;2023-02-10T13:53:53;22.67;;;17.70;;
75486;SDS011;65009;44.762;21.516;2023-02-10T13:58:50;21.52;;;19.30;;
75486;SDS011;65009;44.762;21.516;2023-02-10T14:03:43;28.60;;;21.40;;
75486;SDS011;65009;44.762;21.516;2023-02-10T14:06:20;27.13;;;19.77;;
75486;SDS011;65009;44.762;21.516;2023-02-10T14:09:02;20.20;;;17.33;;
75486;SDS011;65009;44.762;21.516;2023-02-10T14:11:31;39.25;;;17.33;;
75486;SDS011;65009;44.762;21.516;2023-02-10T14:14:21;41.47;;;17.48;;
75486;SDS011;65009;44.762;21.516;2023-02-10T14:16:51;29.98;;;21.55;;
75486;SDS011;65009;44.762;21.516;2023-02-10T14:19:23;39.85;;;20.02;;
75486;SDS011;65009;44.762;21.516;2023-02-10T14:21:50;40.80;;;19.58;;
75486;SDS011;65009;44.762;21.516;2023-02-10T14:24:28;22.77;;;16.02;;
75486;SDS011;65009;44.762;21.516;2023-02-10T14:26:59;21.08;;;16.25;;
75486;SDS011;65009;44.762;21.516;2023-02-10T14:29:26;25.70;;;17.08;;
75486;SDS011;65009;44.762;21.516;2023-02-10T14:31:55;21.30;;;15.82;;
75486;SDS011;65009;44.762;21.516;2023-02-10T14:36:55;30.67;;;19.60;;
75486;SDS011;65009;44.762;21.516;2023-02-10T14:39:23;24.20;;;15.57;;
75486;SDS011;65009;44.762;21.516;2023-02-10T14:41:50;20.60;;;15.02;;
75486;SDS011;65009;44.762;21.516;2023-02-10T14:44:39;20.40;;;14.40;;
75486;SDS011;65009;44.762;21.516;2023-02-10T14:47:03;26.33;;;17.00;;
75486;SDS011;65009;44.762;21.516;2023-02-10T14:49:29;24.88;;;17.23;;
75486;SDS011;65009;44.762;21.516;2023-02-10T14:52:00;26.85;;;17.17;;
75486;SDS011;65009;44.762;21.516;2023-02-10T14:54:27;29.93;;;19.50;;
75486;SDS011;65009;44.762;21.516;2023-02-10T14:56:54;27.20;;;18.07;;
75486;SDS011;65009;44.762;21.516;2023-02-10T14:59:22;38.97;;;22.90;;
75486;SDS011;65009;44.762;21.516;2023-02-10T15:01:49;38.97;;;23.77;;
75486;SDS011;65009;44.762;21.516;2023-02-10T15:04:16;43.33;;;27.70;;
75486;SDS011;65009;44.762;21.516;2023-02-10T15:06:44;41.00;;;27.07;;
75486;SDS011;65009;44.762;21.516;2023-02-10T15:09:12;30.43;;;20.97;;
75486;SDS011;65009;44.762;21.516;2023-02-10T15:11:41;28.83;;;17.30;;
75486;SDS011;65009;44.762;21.516;2023-02-10T15:14:30;26.90;;;16.30;;
75486;SDS011;65009;44.762;21.516;2023-02-10T15:16:58;28.90;;;18.47;;
75486;SDS011;65009;44.762;21.516;2023-02-10T15:19:24;36.30;;;21.50;;
75486;SDS011;65009;44.762;21.516;2023-02-10T15:21:50;38.50;;;22.03;;
75486;SDS011;65009;44.762;21.516;2023-02-10T15:24:18;37.63;;;20.97;;
75486;SDS011;65009;44.762;21.516;2023-02-10T15:26:44;26.77;;;16.90;;
75486;SDS011;65009;44.762;21.516;2023-02-10T15:29:11;37.63;;;20.30;;
75486;SDS011;65009;44.762;21.516;2023-02-10T15:31:38;40.73;;;23.47;;
75486;SDS011;65009;44.762;21.516;2023-02-10T15:34:43;49.47;;;25.47;;
75486;SDS011;65009;44.762;21.516;2023-02-10T15:37:03;55.08;;;30.17;;
75486;SDS011;65009;44.762;21.516;2023-02-10T15:39:36;67.97;;;37.83;;
75486;SDS011;65009;44.762;21.516;2023-02-10T15:42:05;65.83;;;34.80;;
75486;SDS011;65009;44.762;21.516;2023-02-10T15:44:37;49.77;;;26.83;;
75486;SDS011;65009;44.762;21.516;2023-02-10T15:49:46;44.13;;;24.97;;
75486;SDS011;65009;44.762;21.516;2023-02-10T15:52:17;40.13;;;23.43;;
75486;SDS011;65009;44.762;21.516;2023-02-10T15:54:44;59.67;;;30.77;;
75486;SDS011;65009;44.762;21.516;2023-02-10T15:57:11;53.43;;;29.33;;
75486;SDS011;65009;44.762;21.516;2023-02-10T15:59:38;54.80;;;31.13;;
75486;SDS011;65009;44.762;21.516;2023-02-10T16:02:05;58.87;;;32.53;;
75486;SDS011;65009;44.762;21.516;2023-02-10T16:04:33;53.90;;;30.93;;
75486;SDS011;65009;44.762;21.516;2023-02-10T16:07:00;52.17;;;30.10;;
75486;SDS011;65009;44.762;21.516;2023-02-10T16:09:27;51.87;;;28.57;;
75486;SDS011;65009;44.762;21.516;2023-02-10T16:11:53;57.23;;;33.57;;
75486;SDS011;65009;44.762;21.516;2023-02-10T16:14:19;54.27;;;31.00;;
75486;SDS011;65009;44.762;21.516;2023-02-10T16:16:47;52.17;;;29.77;;